Time;durP1;ratioP1;P1;durP2;ratioP2;P2;SDS_P1;SDS_P2;PMS_P1;PMS_P2;Temp;Humidity;BMP_temperature;BMP_pressure;BME280_temperature;BME280_humidity;BME280_pressure;Samples;Min_cycle;Max_cycle;Signal;HPM_P1;HPM_P2
2023/05/01 00:01:05;;;;;;;3.58;3.03;;;;;;;;;;5070229;27;99271;-78
2023/05/01 00:03:31;;;;;;;6.25;3.30;;;;;;;;;;5069493;27;98711;-78
2023/05/01 00:05:59;;;;;;;7.35;3.40;;;;;;;;;;5070001;27;98241;-78
2023/05/01 00:08:26;;;;;;;3.58;3.28;;;;;;;;;;5070933;27;99823;-77
2023/05/01 00:10:52;;;;;;;6.03;3.95;;;;;;;;;;5062684;27;100201;-80
2023/05/01 00:13:20;;;;;;;6.30;3.80;;;;;;;;;;5069279;27;98372;-79
2023/05/01 00:15:47;;;;;;;4.20;2.95;;;;;;;;;;5070152;27;99320;-79
2023/05/01 00:18:13;;;;;;;5.63;3.28;;;;;;;;;;5071387;27;98110;-80
2023/05/01 00:20:40;;;;;;;4.20;3.80;;;;;;;;;;5069672;27;100164;-80
2023/05/01 00:23:07;;;;;;;4.13;3.45;;;;;;;;;;5070063;27;100130;-79
2023/05/01 00:25:33;;;;;;;6.03;3.67;;;;;;;;;;5069994;27;98274;-79
2023/05/01 00:28:00;;;;;;;4.88;3.22;;;;;;;;;;5069972;27;99573;-78
2023/05/01 00:30:26;;;;;;;3.42;3.13;;;;;;;;;;5070501;27;98007;-79
2023/05/01 00:32:53;;;;;;;5.00;3.67;;;;;;;;;;5070541;27;98245;-79
2023/05/01 00:35:19;;;;;;;3.85;3.40;;;;;;;;;;5069863;27;98592;-78
2023/05/01 00:37:45;;;;;;;4.07;3.45;;;;;;;;;;5073915;27;98399;-79
2023/05/01 00:40:12;;;;;;;6.32;3.83;;;;;;;;;;5070397;27;100933;-79
2023/05/01 00:42:39;;;;;;;4.07;3.55;;;;;;;;;;5056669;27;101732;-78
2023/05/01 00:45:06;;;;;;;3.78;3.45;;;;;;;;;;5069807;27;99804;-79
2023/05/01 00:47:36;;;;;;;3.80;3.60;;;;;;;;;;5068593;27;101445;-79
2023/05/01 00:50:04;;;;;;;4.38;3.88;;;;;;;;;;5068898;27;98627;-79
2023/05/01 00:52:30;;;;;;;10.93;3.90;;;;;;;;;;5069397;27;98982;-79
2023/05/01 00:54:57;;;;;;;13.57;3.70;;;;;;;;;;5067432;27;100701;-79
2023/05/01 00:57:24;;;;;;;4.03;3.58;;;;;;;;;;5073565;27;99537;-78
2023/05/01 00:59:50;;;;;;;7.40;3.60;;;;;;;;;;5069875;27;99374;-77
2023/05/01 01:02:17;;;;;;;7.45;3.55;;;;;;;;;;5066966;27;98913;-79
2023/05/01 01:04:44;;;;;;;9.05;3.90;;;;;;;;;;5070053;27;98189;-80
2023/05/01 01:07:14;;;;;;;4.57;3.47;;;;;;;;;;5070165;27;98570;-79
2023/05/01 01:09:46;;;;;;;6.57;4.53;;;;;;;;;;5067965;27;100369;-79
2023/05/01 01:12:13;;;;;;;7.93;3.88;;;;;;;;;;5070336;27;98113;-78
2023/05/01 01:14:44;;;;;;;3.97;3.47;;;;;;;;;;5067849;27;101651;-79
2023/05/01 01:17:13;;;;;;;9.02;3.45;;;;;;;;;;5068175;27;101860;-79
2023/05/01 01:20:11;;;;;;;6.28;3.67;;;;;;;;;;5073258;27;98256;-78
2023/05/01 01:22:40;;;;;;;4.72;3.67;;;;;;;;;;5033960;27;101585;-78
2023/05/01 01:25:25;;;;;;;4.50;3.10;;;;;;;;;;5069596;27;99697;-80
2023/05/01 01:27:57;;;;;;;10.45;4.03;;;;;;;;;;5062915;27;99937;-80
2023/05/01 01:30:55;;;;;;;9.00;4.03;;;;;;;;;;5068371;27;100247;-80
2023/05/01 01:33:31;;;;;;;5.55;3.20;;;;;;;;;;5070718;27;98125;-79
2023/05/01 01:36:01;;;;;;;6.53;3.80;;;;;;;;;;5074808;27;98498;-79
2023/05/01 01:38:36;;;;;;;5.65;3.72;;;;;;;;;;5073288;27;98490;-78
2023/05/01 01:41:08;;;;;;;11.60;3.70;;;;;;;;;;5071996;27;98097;-79
2023/05/01 01:43:39;;;;;;;5.22;3.80;;;;;;;;;;5070515;27;101050;-80
2023/05/01 01:46:07;;;;;;;13.38;3.75;;;;;;;;;;5069360;27;98285;-79
2023/05/01 01:48:35;;;;;;;8.80;4.25;;;;;;;;;;5068123;27;98654;-79
2023/05/01 01:51:07;;;;;;;7.43;3.92;;;;;;;;;;5069596;27;98804;-80
2023/05/01 01:53:36;;;;;;;3.88;3.58;;;;;;;;;;5067738;27;98320;-79
2023/05/01 01:56:03;;;;;;;3.72;3.40;;;;;;;;;;5068720;27;98422;-79
2023/05/01 01:58:30;;;;;;;5.05;3.35;;;;;;;;;;5067005;27;102299;-79
2023/05/01 02:00:58;;;;;;;4.63;4.00;;;;;;;;;;5067018;27;99227;-79
2023/05/01 02:03:25;;;;;;;5.32;3.83;;;;;;;;;;5066927;27;100875;-80
2023/05/01 02:05:53;;;;;;;3.53;3.28;;;;;;;;;;5069561;27;101862;-80
2023/05/01 02:08:20;;;;;;;7.97;4.28;;;;;;;;;;5068730;27;98251;-79
2023/05/01 02:10:47;;;;;;;5.55;3.40;;;;;;;;;;5069133;27;98751;-79
2023/05/01 02:13:14;;;;;;;8.77;3.63;;;;;;;;;;5066801;27;98285;-79
2023/05/01 02:15:41;;;;;;;4.38;3.50;;;;;;;;;;5067477;27;99360;-79
2023/05/01 02:18:07;;;;;;;5.03;4.20;;;;;;;;;;5067308;27;101202;-79
2023/05/01 02:20:36;;;;;;;6.25;3.60;;;;;;;;;;5067493;27;98849;-79
2023/05/01 02:23:04;;;;;;;6.72;3.60;;;;;;;;;;5067818;27;99380;-80
2023/05/01 02:25:33;;;;;;;4.20;3.75;;;;;;;;;;5067775;27;100091;-79
2023/05/01 02:28:02;;;;;;;6.15;4.15;;;;;;;;;;5070152;27;99659;-78
2023/05/01 02:30:28;;;;;;;10.73;3.90;;;;;;;;;;5068132;27;99138;-78
2023/05/01 02:32:56;;;;;;;5.30;3.80;;;;;;;;;;5069470;27;98547;-79
2023/05/01 02:35:23;;;;;;;15.35;4.22;;;;;;;;;;5067192;27;98420;-78
2023/05/01 02:37:50;;;;;;;5.10;4.00;;;;;;;;;;5068195;27;98785;-79
2023/05/01 02:40:17;;;;;;;14.15;4.32;;;;;;;;;;5068607;27;98225;-80
2023/05/01 02:42:44;;;;;;;5.93;3.67;;;;;;;;;;5066024;27;100772;-79
2023/05/01 02:45:18;;;;;;;5.72;3.83;;;;;;;;;;5066952;27;100843;-78
2023/05/01 02:47:47;;;;;;;8.55;3.97;;;;;;;;;;5069840;27;98515;-79
2023/05/01 02:50:14;;;;;;;6.60;3.53;;;;;;;;;;5066907;27;101554;-78
2023/05/01 02:52:41;;;;;;;7.55;3.72;;;;;;;;;;5066211;27;98304;-78
2023/05/01 02:55:36;;;;;;;4.53;3.28;;;;;;;;;;5065184;27;100722;-77
2023/05/01 02:58:02;;;;;;;11.55;3.95;;;;;;;;;;5066790;27;101669;-80
2023/05/01 03:00:29;;;;;;;9.50;4.03;;;;;;;;;;5066680;27;98428;-79
2023/05/01 03:02:57;;;;;;;7.57;4.10;;;;;;;;;;5059752;27;99319;-79
2023/05/01 03:05:23;;;;;;;6.63;4.32;;;;;;;;;;5065269;27;100768;-80
2023/05/01 03:07:50;;;;;;;5.22;3.75;;;;;;;;;;5068473;27;98598;-78
2023/05/01 03:10:16;;;;;;;5.82;3.83;;;;;;;;;;5070690;27;98600;-79
2023/05/01 03:12:43;;;;;;;4.32;3.90;;;;;;;;;;5067367;27;98229;-79
2023/05/01 03:15:11;;;;;;;6.20;4.47;;;;;;;;;;5068264;27;99022;-79
2023/05/01 03:17:37;;;;;;;7.78;4.45;;;;;;;;;;5067211;27;98981;-78
2023/05/01 03:20:06;;;;;;;7.88;3.88;;;;;;;;;;5067798;27;98676;-77
2023/05/01 03:22:32;;;;;;;14.48;4.25;;;;;;;;;;5065769;27;98660;-79
2023/05/01 03:24:59;;;;;;;7.65;4.22;;;;;;;;;;5067910;27;98595;-80
2023/05/01 03:27:26;;;;;;;5.07;3.88;;;;;;;;;;5069048;27;98282;-79
2023/05/01 03:29:53;;;;;;;4.45;3.85;;;;;;;;;;5068180;27;98255;-79
2023/05/01 03:32:21;;;;;;;8.27;3.60;;;;;;;;;;5070445;27;100171;-79
2023/05/01 03:34:49;;;;;;;7.03;4.07;;;;;;;;;;5067036;27;100899;-79
2023/05/01 03:37:16;;;;;;;6.80;3.65;;;;;;;;;;5057708;27;99074;-78
2023/05/01 03:39:43;;;;;;;5.53;3.88;;;;;;;;;;5066963;27;98506;-78
2023/05/01 03:42:32;;;;;;;9.20;4.30;;;;;;;;;;5065379;27;101761;-78
2023/05/01 03:45:06;;;;;;;12.57;6.93;;;;;;;;;;5064014;27;101825;-79
2023/05/01 03:47:32;;;;;;;9.50;3.80;;;;;;;;;;5065673;27;98265;-80
2023/05/01 03:49:59;;;;;;;12.18;4.20;;;;;;;;;;5066210;27;100746;-79
2023/05/01 03:52:26;;;;;;;13.63;4.40;;;;;;;;;;5065005;27;99495;-79
2023/05/01 03:54:53;;;;;;;6.88;4.10;;;;;;;;;;5069553;27;98002;-78
2023/05/01 03:57:22;;;;;;;8.32;4.43;;;;;;;;;;5066066;27;98174;-79
2023/05/01 03:59:49;;;;;;;6.25;4.10;;;;;;;;;;5065634;27;99063;-79
2023/05/01 04:02:17;;;;;;;5.70;3.88;;;;;;;;;;5065984;27;101048;-79
2023/05/01 04:04:44;;;;;;;19.38;4.00;;;;;;;;;;5066054;27;99891;-77
2023/05/01 04:07:11;;;;;;;7.10;4.20;;;;;;;;;;5065830;27;98352;-78
2023/05/01 04:09:38;;;;;;;6.78;4.63;;;;;;;;;;5064898;27;98705;-78
2023/05/01 04:12:05;;;;;;;11.55;4.68;;;;;;;;;;5068981;27;98778;-78
2023/05/01 04:14:31;;;;;;;4.80;4.13;;;;;;;;;;5068466;27;98375;-79
2023/05/01 04:17:01;;;;;;;10.48;4.43;;;;;;;;;;5064962;27;100600;-78
2023/05/01 04:19:31;;;;;;;11.30;4.32;;;;;;;;;;5069047;27;98360;-79
2023/05/01 04:21:58;;;;;;;6.45;4.70;;;;;;;;;;5069617;27;98845;-80
2023/05/01 04:24:25;;;;;;;10.00;4.80;;;;;;;;;;5069341;27;102279;-81
2023/05/01 04:26:52;;;;;;;6.80;4.22;;;;;;;;;;5068121;27;98281;-79
2023/05/01 04:29:18;;;;;;;8.85;4.55;;;;;;;;;;5068734;27;100564;-79
2023/05/01 04:31:45;;;;;;;4.03;3.72;;;;;;;;;;5069100;27;102087;-78
2023/05/01 04:34:11;;;;;;;5.22;4.72;;;;;;;;;;5069355;27;98448;-79
2023/05/01 04:36:38;;;;;;;7.43;4.78;;;;;;;;;;5069000;27;100289;-78
2023/05/01 04:39:04;;;;;;;5.53;5.00;;;;;;;;;;5071857;27;99086;-78
2023/05/01 04:41:31;;;;;;;8.30;5.43;;;;;;;;;;5068102;27;100818;-78
2023/05/01 04:43:58;;;;;;;12.55;4.70;;;;;;;;;;5070511;27;98794;-78
2023/05/01 04:46:25;;;;;;;7.82;4.72;;;;;;;;;;5068833;27;98320;-77
2023/05/01 04:48:52;;;;;;;7.38;4.68;;;;;;;;;;5068218;27;100117;-79
2023/05/01 04:51:19;;;;;;;6.00;4.60;;;;;;;;;;5069061;27;100042;-80
2023/05/01 04:53:46;;;;;;;4.95;4.50;;;;;;;;;;5069106;27;98273;-80
2023/05/01 04:56:20;;;;;;;5.03;4.50;;;;;;;;;;5068430;27;101249;-80
2023/05/01 04:58:49;;;;;;;11.10;5.10;;;;;;;;;;5071605;27;98935;-78
2023/05/01 05:01:20;;;;;;;9.48;4.88;;;;;;;;;;5059431;27;98258;-79
2023/05/01 05:03:46;;;;;;;12.57;5.07;;;;;;;;;;5068574;27;99779;-81
2023/05/01 05:06:17;;;;;;;6.18;4.30;;;;;;;;;;5069010;27;98137;-77
2023/05/01 05:08:44;;;;;;;11.77;4.82;;;;;;;;;;5068488;27;99409;-78
2023/05/01 05:11:10;;;;;;;15.25;4.55;;;;;;;;;;5068198;27;101767;-80
2023/05/01 05:13:47;;;;;;;9.80;4.80;;;;;;;;;;5068852;27;98202;-80
2023/05/01 05:16:14;;;;;;;10.35;5.18;;;;;;;;;;5068593;27;100185;-78
2023/05/01 05:18:41;;;;;;;6.07;4.82;;;;;;;;;;5068551;27;101611;-80
2023/05/01 05:21:09;;;;;;;9.48;4.60;;;;;;;;;;5071545;27;98352;-78
2023/05/01 05:23:37;;;;;;;7.22;5.05;;;;;;;;;;5055150;27;101294;-79
2023/05/01 05:26:04;;;;;;;7.85;5.00;;;;;;;;;;5068553;27;98620;-78
2023/05/01 05:28:30;;;;;;;13.40;4.93;;;;;;;;;;5069625;27;98324;-78
2023/05/01 05:30:57;;;;;;;9.90;5.25;;;;;;;;;;5067337;27;101076;-78
2023/05/01 05:33:24;;;;;;;5.43;4.15;;;;;;;;;;5068051;27;98277;-77
2023/05/01 05:35:51;;;;;;;6.43;5.78;;;;;;;;;;5061898;27;101069;-79
2023/05/01 05:38:21;;;;;;;11.77;5.32;;;;;;;;;;5063891;27;99961;-79
2023/05/01 05:40:53;;;;;;;10.43;4.70;;;;;;;;;;5067407;27;98368;-79
2023/05/01 05:43:19;;;;;;;6.80;4.05;;;;;;;;;;5065734;27;100774;-78
2023/05/01 05:45:46;;;;;;;8.13;5.72;;;;;;;;;;5061828;27;98320;-78
2023/05/01 05:48:13;;;;;;;8.70;4.25;;;;;;;;;;5067252;27;101071;-78
2023/05/01 05:50:40;;;;;;;8.45;4.85;;;;;;;;;;5068292;27;99198;-78
2023/05/01 05:53:08;;;;;;;10.48;5.05;;;;;;;;;;5062078;27;99160;-79
2023/05/01 05:55:35;;;;;;;9.40;5.20;;;;;;;;;;5064763;27;102205;-79
2023/05/01 05:58:04;;;;;;;7.63;4.63;;;;;;;;;;5059010;27;101498;-78
2023/05/01 06:00:31;;;;;;;8.40;6.75;;;;;;;;;;5064222;27;98259;-78
2023/05/01 06:03:02;;;;;;;9.57;4.70;;;;;;;;;;5068226;27;101017;-78
2023/05/01 06:05:30;;;;;;;14.20;5.30;;;;;;;;;;5068870;27;100172;-78
2023/05/01 06:07:57;;;;;;;12.52;4.85;;;;;;;;;;5070128;27;98835;-78
2023/05/01 06:10:23;;;;;;;7.20;4.63;;;;;;;;;;5068419;27;98754;-79
2023/05/01 06:12:49;;;;;;;9.57;5.90;;;;;;;;;;5064058;27;99745;-78
2023/05/01 06:15:37;;;;;;;15.00;5.85;;;;;;;;;;5067275;27;101205;-79
2023/05/01 06:18:05;;;;;;;11.07;5.00;;;;;;;;;;5060445;27;100245;-78
2023/05/01 06:20:31;;;;;;;5.72;4.50;;;;;;;;;;5059660;27;100249;-78
2023/05/01 06:22:58;;;;;;;7.82;4.47;;;;;;;;;;5065786;27;100420;-79
2023/05/01 06:25:31;;;;;;;10.60;5.15;;;;;;;;;;5062237;27;99347;-78
2023/05/01 06:27:58;;;;;;;8.50;4.68;;;;;;;;;;5068163;27;100377;-79
2023/05/01 06:30:24;;;;;;;6.75;4.80;;;;;;;;;;5059123;27;101490;-78
2023/05/01 06:32:51;;;;;;;5.97;4.95;;;;;;;;;;5058447;27;98214;-78
2023/05/01 06:35:19;;;;;;;12.15;4.97;;;;;;;;;;5057295;27;101228;-77
2023/05/01 06:37:46;;;;;;;9.35;5.13;;;;;;;;;;5066340;27;100189;-78
2023/05/01 06:40:13;;;;;;;7.72;5.10;;;;;;;;;;5054212;27;98275;-78
2023/05/01 06:42:40;;;;;;;10.68;4.80;;;;;;;;;;5064425;27;99360;-77
2023/05/01 06:45:07;;;;;;;8.07;4.93;;;;;;;;;;5064454;27;101290;-77
2023/05/01 06:47:34;;;;;;;9.98;4.65;;;;;;;;;;5067515;27;98311;-78
2023/05/01 06:50:00;;;;;;;12.65;5.15;;;;;;;;;;5063485;27;98843;-78
2023/05/01 06:52:32;;;;;;;7.30;4.72;;;;;;;;;;5065602;27;98304;-78
2023/05/01 06:54:58;;;;;;;10.52;5.05;;;;;;;;;;5063294;27;100661;-78
2023/05/01 06:57:24;;;;;;;8.15;4.75;;;;;;;;;;5064458;27;101452;-78
2023/05/01 06:59:51;;;;;;;8.85;4.55;;;;;;;;;;5064046;27;98290;-78
2023/05/01 07:02:17;;;;;;;11.77;4.70;;;;;;;;;;5066361;27;100441;-78
2023/05/01 07:04:44;;;;;;;17.48;5.30;;;;;;;;;;5068841;27;100133;-79
2023/05/01 07:07:10;;;;;;;19.10;5.22;;;;;;;;;;5067023;27;98247;-79
2023/05/01 07:09:37;;;;;;;9.98;5.68;;;;;;;;;;5070850;27;99509;-77
2023/05/01 07:12:04;;;;;;;12.48;4.97;;;;;;;;;;5068360;27;98695;-79
2023/05/01 07:14:31;;;;;;;23.38;5.35;;;;;;;;;;5065414;27;98803;-78
2023/05/01 07:16:57;;;;;;;11.18;5.25;;;;;;;;;;5061931;27;100368;-77
2023/05/01 07:19:24;;;;;;;13.43;5.18;;;;;;;;;;5065836;27;100096;-79
2023/05/01 07:21:50;;;;;;;8.57;5.50;;;;;;;;;;5065305;27;99627;-79
2023/05/01 07:24:17;;;;;;;6.20;5.03;;;;;;;;;;5063989;27;99799;-77
2023/05/01 07:26:43;;;;;;;9.52;4.78;;;;;;;;;;5060981;27;98276;-77
2023/05/01 07:29:10;;;;;;;8.93;4.68;;;;;;;;;;5059674;27;99822;-78
2023/05/01 07:31:37;;;;;;;9.07;5.68;;;;;;;;;;5063140;27;100402;-79
2023/05/01 07:34:04;;;;;;;7.07;5.18;;;;;;;;;;5061436;27;99814;-79
2023/05/01 07:36:32;;;;;;;17.17;5.13;;;;;;;;;;5058732;27;98960;-79
2023/05/01 07:38:59;;;;;;;8.68;4.93;;;;;;;;;;5067867;27;98247;-79
2023/05/01 07:41:26;;;;;;;11.73;5.50;;;;;;;;;;5067805;27;99776;-79
2023/05/01 07:43:52;;;;;;;5.45;4.85;;;;;;;;;;5067451;27;99957;-79
2023/05/01 07:46:19;;;;;;;6.15;4.70;;;;;;;;;;5068809;27;98244;-78
2023/05/01 07:48:45;;;;;;;9.13;5.07;;;;;;;;;;5065334;27;99473;-79
2023/05/01 07:51:12;;;;;;;6.97;5.10;;;;;;;;;;5069421;27;99262;-79
2023/05/01 07:53:39;;;;;;;6.30;4.93;;;;;;;;;;5074160;27;98043;-79
2023/05/01 07:56:07;;;;;;;17.63;5.53;;;;;;;;;;5071092;27;99928;-79
2023/05/01 07:58:35;;;;;;;17.38;5.38;;;;;;;;;;5069464;27;98227;-80
2023/05/01 08:01:01;;;;;;;9.73;5.45;;;;;;;;;;5070812;27;99661;-77
2023/05/01 08:03:28;;;;;;;9.38;5.05;;;;;;;;;;5066282;27;100233;-78
2023/05/01 08:05:56;;;;;;;7.38;4.97;;;;;;;;;;5067007;27;98265;-78
2023/05/01 08:08:22;;;;;;;8.43;5.28;;;;;;;;;;5070823;27;98572;-78
2023/05/01 08:10:50;;;;;;;15.10;5.50;;;;;;;;;;5065996;27;99981;-79
2023/05/01 08:13:17;;;;;;;10.15;6.13;;;;;;;;;;5064580;27;98770;-79
2023/05/01 08:15:44;;;;;;;9.30;5.43;;;;;;;;;;5072441;27;98797;-79
2023/05/01 08:18:11;;;;;;;10.63;5.20;;;;;;;;;;5065363;27;98366;-79
2023/05/01 08:20:37;;;;;;;13.43;5.80;;;;;;;;;;5070709;27;99663;-78
2023/05/01 08:23:04;;;;;;;16.10;5.88;;;;;;;;;;5070173;27;100095;-79
2023/05/01 08:25:31;;;;;;;8.80;5.15;;;;;;;;;;5065192;27;98263;-79
2023/05/01 08:27:57;;;;;;;11.02;4.97;;;;;;;;;;5070622;27;99802;-79
2023/05/01 08:30:25;;;;;;;16.25;5.70;;;;;;;;;;5060448;27;100691;-79
2023/05/01 08:32:51;;;;;;;8.30;5.60;;;;;;;;;;5059975;27;98929;-80
2023/05/01 08:35:18;;;;;;;14.40;6.72;;;;;;;;;;5065798;27;99465;-79
2023/05/01 08:37:44;;;;;;;10.48;5.95;;;;;;;;;;5073688;27;100136;-79
2023/05/01 08:40:11;;;;;;;8.23;5.40;;;;;;;;;;5069183;27;99700;-80
2023/05/01 08:42:37;;;;;;;16.27;5.70;;;;;;;;;;5070209;27;100056;-79
2023/05/01 08:45:08;;;;;;;6.88;5.30;;;;;;;;;;5070511;27;98545;-78
2023/05/01 08:47:35;;;;;;;15.57;5.60;;;;;;;;;;5057205;27;98722;-79
2023/05/01 08:50:02;;;;;;;4.28;3.88;;;;;;;;;;5064959;27;99992;-78
2023/05/01 08:52:30;;;;;;;11.27;5.90;;;;;;;;;;5069586;27;98766;-80
2023/05/01 08:54:57;;;;;;;9.93;5.85;;;;;;;;;;5064898;27;98937;-78
2023/05/01 08:57:25;;;;;;;12.30;5.70;;;;;;;;;;5061309;27;100201;-79
2023/05/01 08:59:52;;;;;;;8.77;5.85;;;;;;;;;;5072675;27;98083;-81
2023/05/01 09:02:19;;;;;;;16.63;6.68;;;;;;;;;;5060193;27;98909;-79
2023/05/01 09:04:47;;;;;;;12.55;5.93;;;;;;;;;;5061271;27;98400;-79
2023/05/01 09:07:14;;;;;;;9.60;5.75;;;;;;;;;;5067316;27;98475;-79
2023/05/01 09:09:40;;;;;;;11.27;6.38;;;;;;;;;;5067893;27;98981;-80
2023/05/01 09:12:14;;;;;;;13.10;5.82;;;;;;;;;;5061725;27;98315;-79
2023/05/01 09:14:40;;;;;;;7.70;4.88;;;;;;;;;;5065693;27;99916;-80
2023/05/01 09:17:07;;;;;;;10.90;5.75;;;;;;;;;;5069680;27;99920;-80
2023/05/01 09:19:33;;;;;;;7.35;5.30;;;;;;;;;;5072515;27;98219;-80
2023/05/01 09:22:00;;;;;;;15.35;4.40;;;;;;;;;;5068120;27;100240;-78
2023/05/01 09:24:26;;;;;;;15.88;5.78;;;;;;;;;;5065726;27;98899;-78
2023/05/01 09:26:53;;;;;;;7.90;5.28;;;;;;;;;;5069812;27;99377;-79
2023/05/01 09:29:36;;;;;;;9.82;5.38;;;;;;;;;;5065541;27;99973;-76
2023/05/01 09:32:12;;;;;;;9.85;5.28;;;;;;;;;;5067393;27;98186;-79
2023/05/01 09:34:38;;;;;;;10.40;5.60;;;;;;;;;;5059289;27;98485;-77
2023/05/01 09:37:05;;;;;;;9.15;5.20;;;;;;;;;;5070436;27;100022;-79
2023/05/01 09:39:31;;;;;;;9.45;5.93;;;;;;;;;;5069346;27;98277;-80
2023/05/01 09:41:58;;;;;;;12.07;6.20;;;;;;;;;;5068804;27;99729;-81
2023/05/01 09:44:25;;;;;;;12.50;6.95;;;;;;;;;;5060858;27;98612;-80
2023/05/01 09:46:53;;;;;;;16.25;7.43;;;;;;;;;;5063712;27;99343;-79
2023/05/01 09:49:19;;;;;;;18.40;7.93;;;;;;;;;;5065455;27;99298;-78
2023/05/01 09:51:47;;;;;;;10.95;6.95;;;;;;;;;;5065342;27;99273;-80
2023/05/01 09:54:17;;;;;;;10.68;6.22;;;;;;;;;;5068571;27;99575;-80
2023/05/01 09:56:47;;;;;;;9.55;6.50;;;;;;;;;;5064399;27;100694;-80
2023/05/01 09:59:15;;;;;;;16.05;6.43;;;;;;;;;;5066608;27;99486;-80
2023/05/01 10:01:42;;;;;;;10.50;5.55;;;;;;;;;;5066583;27;98814;-77
2023/05/01 10:04:09;;;;;;;12.98;6.38;;;;;;;;;;5069824;27;99893;-78
2023/05/01 10:06:36;;;;;;;16.00;6.55;;;;;;;;;;5066348;27;99301;-78
2023/05/01 10:09:06;;;;;;;11.48;6.65;;;;;;;;;;5067953;27;99058;-79
2023/05/01 10:11:52;;;;;;;9.43;5.45;;;;;;;;;;5068431;27;98403;-79
2023/05/01 10:14:19;;;;;;;12.57;5.82;;;;;;;;;;5068964;27;99362;-79
2023/05/01 10:16:46;;;;;;;10.48;5.10;;;;;;;;;;5067703;27;101079;-78
2023/05/01 10:19:14;;;;;;;15.05;6.07;;;;;;;;;;5064748;27;99368;-79
2023/05/01 10:21:40;;;;;;;18.15;5.47;;;;;;;;;;5064047;27;99702;-80
2023/05/01 10:24:08;;;;;;;9.50;5.47;;;;;;;;;;5061250;27;100309;-79
2023/05/01 10:26:35;;;;;;;8.30;5.13;;;;;;;;;;5071220;27;99244;-78
2023/05/01 10:29:02;;;;;;;9.38;5.63;;;;;;;;;;5060222;27;100249;-79
2023/05/01 10:31:31;;;;;;;13.25;6.63;;;;;;;;;;5068332;27;99922;-80
2023/05/01 10:34:00;;;;;;;8.32;5.78;;;;;;;;;;5061181;27;99383;-80
2023/05/01 10:36:32;;;;;;;6.40;5.18;;;;;;;;;;5064924;27;99955;-79
2023/05/01 10:38:59;;;;;;;16.10;5.60;;;;;;;;;;5068379;27;98445;-80
2023/05/01 10:41:44;;;;;;;11.68;5.38;;;;;;;;;;5068178;27;98799;-79
2023/05/01 10:44:19;;;;;;;10.07;6.65;;;;;;;;;;5065135;27;100385;-80
2023/05/01 10:46:46;;;;;;;13.05;6.85;;;;;;;;;;5068044;27;98386;-80
2023/05/01 10:49:12;;;;;;;14.02;7.60;;;;;;;;;;5063033;27;98692;-80
2023/05/01 10:51:57;;;;;;;12.45;8.07;;;;;;;;;;5059990;27;98329;-79
2023/05/01 10:54:27;;;;;;;14.55;8.23;;;;;;;;;;5057668;27;100266;-79
2023/05/01 10:56:54;;;;;;;10.70;6.45;;;;;;;;;;5061131;27;100125;-78
2023/05/01 10:59:21;;;;;;;11.50;5.82;;;;;;;;;;5063437;27;100165;-79
2023/05/01 11:01:50;;;;;;;8.25;4.30;;;;;;;;;;5061456;27;100619;-78
2023/05/01 11:04:26;;;;;;;5.10;3.58;;;;;;;;;;5064515;27;99095;-78
2023/05/01 11:07:04;;;;;;;7.80;4.22;;;;;;;;;;5060805;27;98598;-79
2023/05/01 11:09:37;;;;;;;6.18;4.07;;;;;;;;;;5060170;27;98587;-83
2023/05/01 11:12:06;;;;;;;8.98;3.80;;;;;;;;;;5069283;27;98989;-79
2023/05/01 11:14:51;;;;;;;13.13;4.35;;;;;;;;;;5067230;27;99799;-79
2023/05/01 11:17:42;;;;;;;4.78;3.90;;;;;;;;;;5064628;27;99855;-80
2023/05/01 11:20:09;;;;;;;12.05;3.83;;;;;;;;;;5062181;27;98309;-80
2023/05/01 11:22:39;;;;;;;8.77;4.28;;;;;;;;;;5067890;27;99654;-80
2023/05/01 11:25:19;;;;;;;10.15;5.13;;;;;;;;;;5068979;27;100337;-81
2023/05/01 11:27:49;;;;;;;11.75;4.90;;;;;;;;;;5060524;27;98290;-80
2023/05/01 11:30:16;;;;;;;10.77;4.57;;;;;;;;;;5065341;27;100598;-80
2023/05/01 11:32:43;;;;;;;7.13;4.57;;;;;;;;;;5073083;27;99285;-80
2023/05/01 11:35:20;;;;;;;9.90;4.68;;;;;;;;;;5064819;27;98603;-80
2023/05/01 11:37:47;;;;;;;8.50;6.43;;;;;;;;;;5061900;27;99769;-79
2023/05/01 11:40:22;;;;;;;10.00;5.15;;;;;;;;;;5069822;27;98891;-80
2023/05/01 11:42:49;;;;;;;6.88;4.40;;;;;;;;;;5070017;27;99918;-79
2023/05/01 11:45:16;;;;;;;7.55;4.90;;;;;;;;;;5069361;27;100080;-80
2023/05/01 11:47:42;;;;;;;10.55;4.78;;;;;;;;;;5061937;27;98375;-79
2023/05/01 11:50:09;;;;;;;7.70;4.93;;;;;;;;;;5070445;27;99399;-80
2023/05/01 11:52:48;;;;;;;7.47;4.10;;;;;;;;;;5063898;27;98823;-79
2023/05/01 11:55:15;;;;;;;4.78;3.22;;;;;;;;;;5065216;27;99253;-79
2023/05/01 11:57:49;;;;;;;9.38;3.75;;;;;;;;;;5062922;27;100159;-80
2023/05/01 12:00:24;;;;;;;7.47;3.47;;;;;;;;;;5066931;27;98790;-80
2023/05/01 12:03:07;;;;;;;5.18;3.83;;;;;;;;;;5065915;27;98621;-80
2023/05/01 12:05:35;;;;;;;5.78;4.00;;;;;;;;;;5070043;27;99895;-78
2023/05/01 12:08:10;;;;;;;6.28;4.20;;;;;;;;;;5069686;27;98255;-78
2023/05/01 12:10:38;;;;;;;4.40;3.95;;;;;;;;;;5067409;27;99438;-78
2023/05/01 12:13:05;;;;;;;6.32;4.38;;;;;;;;;;5070649;27;99880;-81
2023/05/01 12:15:34;;;;;;;10.57;4.38;;;;;;;;;;5067609;27;98357;-78
2023/05/01 12:18:00;;;;;;;9.85;2.85;;;;;;;;;;5072733;27;99056;-80
2023/05/01 12:20:43;;;;;;;2.40;2.20;;;;;;;;;;5070420;27;98316;-81
2023/05/01 12:23:10;;;;;;;3.53;2.80;;;;;;;;;;5063277;27;99176;-79
2023/05/01 12:25:38;;;;;;;6.40;3.22;;;;;;;;;;5068374;27;100402;-79
2023/05/01 12:28:09;;;;;;;6.30;3.30;;;;;;;;;;5062414;27;98360;-81
2023/05/01 12:30:35;;;;;;;4.85;2.42;;;;;;;;;;5069991;27;99794;-79
2023/05/01 12:33:12;;;;;;;4.45;2.55;;;;;;;;;;5063481;27;100120;-80
2023/05/01 12:35:40;;;;;;;8.75;4.30;;;;;;;;;;5068422;27;98339;-78
2023/05/01 12:38:15;;;;;;;10.80;5.53;;;;;;;;;;5070378;27;99364;-80
2023/05/01 12:40:55;;;;;;;11.52;5.72;;;;;;;;;;5073211;27;100034;-79
2023/05/01 12:43:42;;;;;;;14.00;5.80;;;;;;;;;;5064395;27;98692;-80
2023/05/01 12:46:13;;;;;;;13.60;6.00;;;;;;;;;;5069069;27;100579;-81
2023/05/01 12:48:40;;;;;;;13.07;5.90;;;;;;;;;;5069265;27;98932;-81
2023/05/01 12:51:06;;;;;;;14.65;5.35;;;;;;;;;;5069033;27;99358;-80
2023/05/01 12:53:33;;;;;;;14.15;5.45;;;;;;;;;;5069007;27;100457;-81
2023/05/01 12:56:00;;;;;;;9.13;5.60;;;;;;;;;;5070032;27;98258;-81
2023/05/01 12:58:35;;;;;;;13.13;5.85;;;;;;;;;;5070059;27;99554;-81
2023/05/01 13:01:02;;;;;;;9.85;5.30;;;;;;;;;;5068839;27;99805;-80
2023/05/01 13:03:29;;;;;;;12.73;5.22;;;;;;;;;;5072753;27;98255;-80
2023/05/01 13:06:00;;;;;;;12.55;5.85;;;;;;;;;;5064821;27;100248;-81
2023/05/01 13:08:30;;;;;;;11.18;5.10;;;;;;;;;;5060549;27;98386;-80
2023/05/01 13:10:57;;;;;;;11.13;5.40;;;;;;;;;;5069913;27;99887;-80
2023/05/01 13:13:25;;;;;;;11.70;6.35;;;;;;;;;;5068785;27;99989;-81
2023/05/01 13:15:51;;;;;;;11.35;6.20;;;;;;;;;;5068641;27;98247;-79
2023/05/01 13:18:19;;;;;;;10.18;6.22;;;;;;;;;;5069511;27;99593;-81
2023/05/01 13:20:45;;;;;;;7.00;5.43;;;;;;;;;;5068631;27;99011;-80
2023/05/01 13:23:12;;;;;;;8.32;5.70;;;;;;;;;;5072906;27;99555;-80
2023/05/01 13:25:38;;;;;;;9.90;4.30;;;;;;;;;;5068917;27;99003;-80
2023/05/01 13:28:05;;;;;;;7.75;4.40;;;;;;;;;;5068425;27;98248;-80
2023/05/01 13:30:32;;;;;;;10.38;4.03;;;;;;;;;;5069185;27;99772;-81
2023/05/01 13:32:59;;;;;;;6.30;4.50;;;;;;;;;;5071539;27;99953;-79
2023/05/01 13:35:26;;;;;;;4.97;4.10;;;;;;;;;;5068810;27;98300;-80
2023/05/01 13:37:52;;;;;;;10.52;4.15;;;;;;;;;;5069486;27;98347;-80
2023/05/01 13:40:19;;;;;;;8.43;4.47;;;;;;;;;;5064776;27;99261;-78
2023/05/01 13:42:47;;;;;;;6.50;4.50;;;;;;;;;;5061223;27;98479;-79
2023/05/01 13:45:17;;;;;;;9.93;4.38;;;;;;;;;;5068660;27;100004;-78
2023/05/01 13:47:43;;;;;;;4.57;4.10;;;;;;;;;;5065754;27;99074;-77
2023/05/01 13:50:12;;;;;;;9.88;4.00;;;;;;;;;;5059450;27;99325;-79
2023/05/01 13:52:40;;;;;;;7.85;4.30;;;;;;;;;;5067696;27;100253;-79
2023/05/01 13:55:06;;;;;;;10.05;4.45;;;;;;;;;;5063752;27;99231;-79
2023/05/01 13:57:34;;;;;;;6.13;5.00;;;;;;;;;;5064699;27;99365;-80
2023/05/01 14:00:01;;;;;;;8.48;4.72;;;;;;;;;;5066250;27;99351;-80
2023/05/01 14:02:42;;;;;;;6.07;4.75;;;;;;;;;;5066229;27;98232;-79
2023/05/01 14:05:09;;;;;;;9.23;5.07;;;;;;;;;;5067569;27;98172;-79
2023/05/01 14:07:38;;;;;;;9.55;5.13;;;;;;;;;;5071394;27;100507;-78
2023/05/01 14:10:07;;;;;;;7.45;4.70;;;;;;;;;;5064837;27;99653;-78
2023/05/01 14:12:33;;;;;;;6.30;5.57;;;;;;;;;;5064343;27;100131;-79
2023/05/01 14:15:00;;;;;;;6.57;4.95;;;;;;;;;;5069051;27;99244;-79
2023/05/01 14:17:31;;;;;;;6.30;4.35;;;;;;;;;;5063971;27;100254;-79
2023/05/01 14:19:58;;;;;;;8.73;4.40;;;;;;;;;;5067753;27;99908;-79
2023/05/01 14:22:27;;;;;;;5.95;4.30;;;;;;;;;;5067188;27;98474;-80
2023/05/01 14:24:54;;;;;;;5.57;4.40;;;;;;;;;;5066447;27;99431;-81
2023/05/01 14:27:20;;;;;;;6.72;4.85;;;;;;;;;;5057139;27;100226;-78
2023/05/01 14:29:48;;;;;;;4.95;4.50;;;;;;;;;;5072893;27;98325;-80
2023/05/01 14:32:15;;;;;;;7.88;4.22;;;;;;;;;;5071252;27;100092;-80
2023/05/01 14:34:41;;;;;;;6.32;4.57;;;;;;;;;;5068106;27;98229;-80
2023/05/01 14:37:08;;;;;;;6.50;4.60;;;;;;;;;;5068067;27;98461;-80
2023/05/01 14:39:34;;;;;;;3.63;3.17;;;;;;;;;;5065019;27;99970;-82
2023/05/01 14:42:01;;;;;;;6.68;3.33;;;;;;;;;;5067205;27;99381;-80
2023/05/01 14:44:28;;;;;;;4.18;3.08;;;;;;;;;;5068160;27;99143;-81